Time;durP1;ratioP1;P1;durP2;ratioP2;P2;SDS_P1;SDS_P2;PMS_P1;PMS_P2;Temp;Humidity;BMP_temperature;BMP_pressure;BME280_temperature;BME280_humidity;BME280_pressure;Samples;Min_cycle;Max_cycle;Signal;HPM_P1;HPM_P2
2023/07/16 00:02:06;;;;;;;5.85;4.28;;;21.30;99.90;;;;;;5088007;28;20046;-32
2023/07/16 00:04:32;;;;;;;5.80;4.10;;;21.40;99.90;;;;;;5081569;28;20028;-32
2023/07/16 00:07:00;;;;;;;5.88;4.18;;;21.60;99.90;;;;;;5085192;28;20124;-32
2023/07/16 00:09:26;;;;;;;7.03;4.00;;;21.60;99.90;;;;;;5079446;28;20024;-30
2023/07/16 00:11:52;;;;;;;7.30;4.20;;;21.50;99.90;;;;;;5086212;28;20031;-30
2023/07/16 00:14:17;;;;;;;5.97;4.20;;;21.40;99.90;;;;;;5079947;28;20528;-34
2023/07/16 00:16:43;;;;;;;6.15;4.28;;;21.40;99.90;;;;;;5087239;28;20531;-30
2023/07/16 00:19:12;;;;;;;5.80;3.97;;;21.50;99.90;;;;;;5084488;28;20378;-30
2023/07/16 00:21:38;;;;;;;5.63;4.53;;;21.50;99.90;;;;;;5079943;28;20028;-30
2023/07/16 00:24:04;;;;;;;4.30;3.78;;;21.60;99.90;;;;;;5089286;28;20035;-30
2023/07/16 00:26:30;;;;;;;4.68;4.25;;;21.70;99.90;;;;;;5082170;28;20037;-32
2023/07/16 00:28:55;;;;;;;4.15;3.70;;;21.70;99.90;;;;;;5083667;28;20024;-29
2023/07/16 00:31:21;;;;;;;4.05;3.50;;;21.70;99.90;;;;;;5084120;28;20044;-31
2023/07/16 00:33:47;;;;;;;4.80;3.85;;;21.70;99.90;;;;;;5080704;28;20044;-31
2023/07/16 00:36:12;;;;;;;6.88;4.05;;;21.70;99.90;;;;;;5084690;28;20031;-30
2023/07/16 00:38:39;;;;;;;4.30;3.58;;;21.70;99.90;;;;;;5086312;28;20559;-31
2023/07/16 00:41:05;;;;;;;4.38;3.67;;;21.80;99.90;;;;;;5081758;28;20024;-31
2023/07/16 00:43:31;;;;;;;5.05;3.67;;;21.70;99.90;;;;;;5085046;28;20038;-33
2023/07/16 00:45:57;;;;;;;5.93;3.78;;;21.70;99.90;;;;;;5081770;28;20496;-31
2023/07/16 00:48:23;;;;;;;4.30;3.65;;;21.70;99.90;;;;;;5083132;28;20040;-30
2023/07/16 00:50:52;;;;;;;4.18;3.20;;;21.70;99.90;;;;;;5090732;28;20527;-31
2023/07/16 00:53:17;;;;;;;4.13;3.47;;;21.70;99.90;;;;;;5080610;28;20028;-37
2023/07/16 00:55:43;;;;;;;4.68;4.03;;;21.70;99.90;;;;;;5080512;28;20040;-30
2023/07/16 00:58:09;;;;;;;5.82;3.95;;;21.60;99.90;;;;;;5086816;28;20028;-33
2023/07/16 01:00:37;;;;;;;5.93;3.75;;;21.50;99.90;;;;;;5085118;28;20056;-40
2023/07/16 01:03:09;;;;;;;4.45;4.03;;;21.50;99.90;;;;;;5091922;28;20032;-39
2023/07/16 01:05:42;;;;;;;5.63;4.00;;;21.40;99.90;;;;;;5083548;28;20036;-40
2023/07/16 01:08:10;;;;;;;7.55;4.40;;;21.40;99.90;;;;;;5089944;28;20032;-39
2023/07/16 01:10:38;;;;;;;9.30;4.55;;;21.30;99.90;;;;;;5085779;28;20077;-40
2023/07/16 01:13:04;;;;;;;;;;;21.30;99.90;;;;;;5080779;28;20115;-41
2023/07/16 01:15:29;;;;;;;6.28;4.50;;;21.20;99.90;;;;;;5083007;28;20489;-41
2023/07/16 01:17:55;;;;;;;5.28;4.10;;;21.10;99.90;;;;;;5086872;28;20035;-39
2023/07/16 01:20:20;;;;;;;7.40;4.18;;;21.10;99.90;;;;;;5082527;28;20611;-41
2023/07/16 01:23:04;;;;;;;5.20;3.95;;;21.30;99.90;;;;;;5080840;28;20130;-39
2023/07/16 01:25:58;;;;;;;6.55;4.43;;;21.30;99.90;;;;;;5083996;28;20075;-41
2023/07/16 01:28:54;;;;;;;6.57;4.15;;;21.40;99.90;;;;;;5082860;28;20020;-40
2023/07/16 01:31:22;;;;;;;5.97;4.30;;;21.30;99.90;;;;;;5087446;28;20117;-40
2023/07/16 01:33:48;;;;;;;6.15;4.60;;;21.40;99.90;;;;;;5081312;28;20048;-36
2023/07/16 01:36:16;;;;;;;6.82;4.68;;;21.30;99.90;;;;;;5083674;28;20489;-41
2023/07/16 01:38:41;;;;;;;17.58;5.22;;;21.30;99.90;;;;;;5084272;28;20020;-40
2023/07/16 01:41:07;;;;;;;6.70;4.72;;;21.20;99.90;;;;;;5086493;28;20051;-41
2023/07/16 01:43:33;;;;;;;5.97;4.60;;;21.10;99.90;;;;;;5083150;28;20025;-39
2023/07/16 01:45:58;;;;;;;6.25;4.57;;;21.20;99.90;;;;;;5083675;28;20053;-41
2023/07/16 01:48:33;;;;;;;6.80;5.18;;;21.20;99.90;;;;;;5085786;28;20545;-41
2023/07/16 01:50:58;;;;;;;6.18;4.05;;;21.30;99.90;;;;;;5081490;28;20091;-39
2023/07/16 01:53:24;;;;;;;5.95;4.53;;;21.20;99.90;;;;;;5089677;28;20112;-38
2023/07/16 01:55:50;;;;;;;5.75;4.38;;;21.20;99.90;;;;;;5096619;27;20028;-40
2023/07/16 01:58:15;;;;;;;7.13;4.68;;;21.10;99.90;;;;;;5083690;28;20024;-41
2023/07/16 02:00:41;;;;;;;6.47;4.43;;;21.20;99.90;;;;;;5084218;28;20036;-39
2023/07/16 02:03:07;;;;;;;6.22;4.40;;;21.20;99.90;;;;;;5083285;28;20028;-37
2023/07/16 02:05:32;;;;;;;6.25;4.38;;;21.20;99.90;;;;;;5085749;28;20043;-39
2023/07/16 02:07:58;;;;;;;7.63;4.57;;;21.30;99.90;;;;;;5075720;28;20020;-39
2023/07/16 02:10:23;;;;;;;6.25;4.38;;;21.30;99.90;;;;;;5089840;28;20016;-35
2023/07/16 02:12:49;;;;;;;7.22;4.35;;;21.00;99.90;;;;;;5082602;28;20654;-39
2023/07/16 02:15:15;;;;;;;7.32;4.93;;;21.00;99.90;;;;;;5080838;28;20143;-40
2023/07/16 02:17:41;;;;;;;4.18;3.78;;;20.90;99.90;;;;;;5087452;28;20489;-35
2023/07/16 02:20:07;;;;;;;4.68;3.30;;;20.80;99.90;;;;;;5082866;28;20027;-40
2023/07/16 02:22:34;;;;;;;3.33;3.00;;;20.90;99.90;;;;;;5083739;28;20520;-40
2023/07/16 02:25:00;;;;;;;3.10;2.80;;;20.90;99.90;;;;;;5084849;28;20155;-41
2023/07/16 02:27:26;;;;;;;4.15;3.22;;;20.90;99.90;;;;;;5079937;28;20124;-42
2023/07/16 02:29:51;;;;;;;4.32;2.97;;;20.90;99.90;;;;;;5085206;28;20678;-40
2023/07/16 02:32:17;;;;;;;3.10;2.80;;;20.90;99.90;;;;;;5085156;28;20032;-38
2023/07/16 02:34:42;;;;;;;3.95;3.40;;;21.00;99.90;;;;;;5084060;28;20027;-38
2023/07/16 02:37:08;;;;;;;6.47;3.85;;;21.00;99.90;;;;;;5084933;28;20526;-42
2023/07/16 02:39:34;;;;;;;3.85;3.20;;;20.60;99.90;;;;;;5083975;28;20032;-40
2023/07/16 02:41:59;;;;;;;5.40;3.25;;;20.40;99.90;;;;;;5078456;28;20029;-42
2023/07/16 02:44:25;;;;;;;2.42;2.22;;;20.20;99.90;;;;;;5089637;28;20027;-39
2023/07/16 02:46:51;;;;;;;3.00;2.35;;;20.00;99.90;;;;;;5083705;28;20442;-40
2023/07/16 02:49:16;;;;;;;2.20;2.00;;;19.80;99.90;;;;;;5082701;28;20032;-41
2023/07/16 02:51:42;;;;;;;2.83;2.08;;;19.70;99.90;;;;;;5081426;28;20035;-38
2023/07/16 02:54:08;;;;;;;2.42;1.70;;;19.60;99.90;;;;;;5080467;28;20090;-42
2023/07/16 02:56:34;;;;;;;2.22;2.00;;;19.70;99.90;;;;;;5091405;28;20036;-40
2023/07/16 02:58:59;;;;;;;2.70;1.90;;;19.90;99.90;;;;;;5084426;28;20099;-41
2023/07/16 03:01:25;;;;;;;4.00;2.17;;;20.00;99.90;;;;;;5080428;28;20136;-39
2023/07/16 03:03:50;;;;;;;2.42;2.00;;;20.20;99.90;;;;;;5086095;28;20114;-42
2023/07/16 03:06:16;;;;;;;4.03;2.22;;;20.30;99.90;;;;;;5079402;28;20027;-41
2023/07/16 03:08:42;;;;;;;3.65;2.20;;;20.20;99.90;;;;;;5087411;28;20028;-32
2023/07/16 03:11:08;;;;;;;2.83;2.13;;;20.30;99.90;;;;;;5080818;28;20110;-40
2023/07/16 03:13:33;;;;;;;2.80;1.92;;;20.40;99.90;;;;;;5087037;28;20112;-39
2023/07/16 03:15:59;;;;;;;2.17;1.90;;;20.50;99.90;;;;;;5075001;28;20389;-41
2023/07/16 03:18:29;;;;;;;2.10;1.92;;;20.50;99.90;;;;;;5083838;28;20093;-39
2023/07/16 03:20:55;;;;;;;4.45;2.42;;;20.60;99.90;;;;;;5078713;28;20021;-40
2023/07/16 03:23:20;;;;;;;2.42;1.92;;;20.50;99.90;;;;;;5085687;28;20038;-42
2023/07/16 03:25:46;;;;;;;2.20;1.90;;;20.40;99.90;;;;;;5083382;28;20028;-42
2023/07/16 03:28:12;;;;;;;2.30;1.98;;;20.40;99.90;;;;;;5081082;28;20027;-32
2023/07/16 03:30:38;;;;;;;2.22;1.80;;;20.40;99.90;;;;;;5084499;28;20051;-34
2023/07/16 03:33:04;;;;;;;2.38;2.10;;;20.40;99.90;;;;;;5084762;28;20051;-33
2023/07/16 03:35:30;;;;;;;2.28;1.95;;;20.50;99.90;;;;;;5074360;28;20090;-34
2023/07/16 03:37:55;;;;;;;2.67;2.00;;;20.50;99.90;;;;;;5084505;28;20036;-33
2023/07/16 03:40:25;;;;;;;2.30;2.10;;;20.20;99.90;;;;;;5078858;28;20032;-33
2023/07/16 03:42:51;;;;;;;4.97;2.50;;;20.20;99.90;;;;;;5084753;28;20435;-35
2023/07/16 03:45:17;;;;;;;3.30;2.15;;;20.40;99.90;;;;;;5086868;28;20086;-32
2023/07/16 03:47:43;;;;;;;3.42;2.20;;;20.40;99.90;;;;;;5075514;28;20035;-33
2023/07/16 03:50:09;;;;;;;4.43;2.38;;;20.50;99.90;;;;;;5082325;28;20020;-33
2023/07/16 03:52:34;;;;;;;2.60;2.40;;;20.50;99.90;;;;;;5100094;28;20026;-36
2023/07/16 03:55:00;;;;;;;3.42;2.50;;;20.50;99.90;;;;;;5079217;28;20143;-34
2023/07/16 03:57:28;;;;;;;3.35;2.15;;;20.50;99.90;;;;;;5085069;28;20042;-33
2023/07/16 03:59:53;;;;;;;;;;;20.50;99.90;;;;;;5078518;28;20043;-32
2023/07/16 04:02:19;;;;;;;4.88;2.22;;;20.60;99.90;;;;;;5074218;28;19916;-33
2023/07/16 04:04:45;;;;;;;3.03;1.92;;;20.60;99.90;;;;;;5079946;28;20110;-35
2023/07/16 04:07:10;;;;;;;3.33;2.00;;;20.50;99.90;;;;;;5081043;28;20029;-33
2023/07/16 04:09:39;;;;;;;3.55;2.00;;;20.50;99.90;;;;;;5075733;28;20028;-32
2023/07/16 04:12:06;;;;;;;3.53;2.15;;;20.50;99.90;;;;;;5082493;28;20028;-32
2023/07/16 04:14:32;;;;;;;3.22;2.13;;;20.60;99.90;;;;;;5079488;28;20031;-36
2023/07/16 04:16:58;;;;;;;3.45;2.22;;;20.60;99.90;;;;;;5081256;28;20024;-33
2023/07/16 04:19:24;;;;;;;2.10;2.00;;;20.60;99.90;;;;;;5082783;28;20558;-33
2023/07/16 04:21:49;;;;;;;2.13;1.80;;;20.60;99.90;;;;;;5078238;28;20504;-34
2023/07/16 04:24:15;;;;;;;4.40;2.08;;;20.60;99.90;;;;;;5087163;28;20025;-36
2023/07/16 04:26:41;;;;;;;2.45;2.13;;;20.60;99.90;;;;;;5082732;28;20028;-35
2023/07/16 04:29:06;;;;;;;2.53;2.20;;;20.50;99.90;;;;;;5085382;28;20484;-33
2023/07/16 04:31:32;;;;;;;2.28;2.00;;;20.50;99.90;;;;;;5087241;28;20119;-33
2023/07/16 04:33:58;;;;;;;4.13;2.10;;;20.50;99.90;;;;;;5085729;28;20024;-33
2023/07/16 04:36:23;;;;;;;3.88;2.00;;;20.50;99.90;;;;;;5082929;28;20064;-37
2023/07/16 04:38:49;;;;;;;3.60;2.25;;;20.50;99.90;;;;;;5087639;28;20040;-39
2023/07/16 04:41:16;;;;;;;3.25;2.42;;;20.50;99.90;;;;;;5082694;28;20035;-42
2023/07/16 04:43:42;;;;;;;3.88;2.20;;;20.50;99.90;;;;;;5087886;28;20031;-41
2023/07/16 04:46:07;;;;;;;2.88;2.30;;;20.50;99.90;;;;;;5096578;27;20490;-39
2023/07/16 04:48:33;;;;;;;3.20;2.88;;;20.40;99.90;;;;;;5083224;28;20179;-42
2023/07/16 04:50:59;;;;;;;3.10;2.50;;;20.40;99.90;;;;;;5084511;28;20023;-40
2023/07/16 04:53:25;;;;;;;3.85;2.10;;;20.40;99.90;;;;;;5082512;28;20126;-42
2023/07/16 04:55:51;;;;;;;2.00;1.70;;;20.30;99.90;;;;;;5084097;28;20028;-41
2023/07/16 04:58:16;;;;;;;3.15;1.80;;;20.10;99.90;;;;;;5084412;28;20017;-41
2023/07/16 05:00:42;;;;;;;2.42;2.10;;;20.10;99.90;;;;;;5082060;28;20035;-42
2023/07/16 05:03:08;;;;;;;2.75;1.90;;;20.00;99.90;;;;;;5083061;28;20026;-37
2023/07/16 05:05:34;;;;;;;2.00;1.80;;;20.00;99.90;;;;;;5085284;28;20128;-39
2023/07/16 05:08:01;;;;;;;3.08;2.00;;;20.00;99.90;;;;;;5081090;28;20054;-41
2023/07/16 05:10:27;;;;;;;3.03;2.03;;;20.10;99.90;;;;;;5087134;28;20024;-41
2023/07/16 05:12:53;;;;;;;3.08;2.10;;;20.10;99.90;;;;;;5084262;28;20502;-41
2023/07/16 05:15:19;;;;;;;2.20;2.00;;;20.20;99.90;;;;;;5082197;28;20078;-39
2023/07/16 05:17:45;;;;;;;2.22;1.92;;;20.30;99.90;;;;;;5083110;28;20024;-41
2023/07/16 05:20:11;;;;;;;3.25;2.17;;;20.30;99.90;;;;;;5085249;28;20040;-40
2023/07/16 05:22:36;;;;;;;3.03;2.35;;;20.50;99.90;;;;;;5080341;28;20028;-40
2023/07/16 05:25:02;;;;;;;3.67;2.13;;;20.50;99.90;;;;;;5087208;28;20028;-41
2023/07/16 05:27:28;;;;;;;2.22;1.90;;;20.60;99.90;;;;;;5078836;28;20478;-41
2023/07/16 05:29:54;;;;;;;2.08;1.85;;;20.50;99.90;;;;;;5090592;28;20026;-42
2023/07/16 05:32:21;;;;;;;3.33;2.00;;;20.50;99.90;;;;;;5083952;28;20038;-38
2023/07/16 05:34:47;;;;;;;3.83;2.13;;;20.40;99.90;;;;;;5083454;28;20070;-41
2023/07/16 05:37:13;;;;;;;2.53;2.10;;;20.40;99.90;;;;;;5082451;28;20036;-40
2023/07/16 05:39:38;;;;;;;2.25;1.75;;;20.50;99.90;;;;;;5082655;28;20074;-42
2023/07/16 05:42:05;;;;;;;3.85;2.15;;;20.50;99.90;;;;;;5083856;28;20049;-41
2023/07/16 05:44:30;;;;;;;2.75;2.20;;;20.40;99.90;;;;;;5088007;28;20036;-41
2023/07/16 05:46:56;;;;;;;3.03;2.13;;;20.40;99.90;;;;;;5083541;28;20032;-41
2023/07/16 05:49:22;;;;;;;2.50;1.77;;;20.30;99.90;;;;;;5094952;27;20024;-37
2023/07/16 05:51:48;;;;;;;2.53;2.17;;;20.30;99.90;;;;;;5083434;28;20027;-35
2023/07/16 05:54:14;;;;;;;3.70;2.13;;;20.30;99.90;;;;;;5083670;28;20525;-31
2023/07/16 05:56:39;;;;;;;2.33;1.70;;;20.40;99.90;;;;;;5087492;28;20032;-31
2023/07/16 05:59:05;;;;;;;2.40;2.17;;;20.50;99.90;;;;;;5082920;28;20455;-32
2023/07/16 06:01:31;;;;;;;2.10;1.90;;;20.50;99.90;;;;;;5082069;28;20119;-32
2023/07/16 06:03:56;;;;;;;3.97;2.08;;;20.50;99.90;;;;;;5085461;28;20043;-30
2023/07/16 06:06:22;;;;;;;2.75;2.05;;;20.60;99.90;;;;;;5088298;28;20032;-32
2023/07/16 06:08:48;;;;;;;2.88;2.00;;;20.50;99.90;;;;;;5086669;28;20040;-32
2023/07/16 06:11:14;;;;;;;2.65;2.10;;;20.40;99.90;;;;;;5086689;28;20024;-31
2023/07/16 06:13:40;;;;;;;3.33;2.08;;;20.30;99.90;;;;;;5087423;28;20032;-31
2023/07/16 06:16:05;;;;;;;4.03;2.17;;;20.30;99.90;;;;;;5081972;28;20495;-33
2023/07/16 06:18:31;;;;;;;4.00;2.50;;;20.40;99.90;;;;;;5084170;28;20040;-36
2023/07/16 06:20:58;;;;;;;2.67;2.17;;;20.20;99.90;;;;;;5097887;28;20478;-30
2023/07/16 06:23:26;;;;;;;4.93;2.25;;;20.00;99.90;;;;;;5100089;27;20040;-31
2023/07/16 06:25:56;;;;;;;3.78;2.30;;;20.10;99.90;;;;;;5084827;28;20083;-32
2023/07/16 06:28:23;;;;;;;3.88;2.20;;;20.20;99.90;;;;;;5087501;28;20032;-31
2023/07/16 06:30:53;;;;;;;3.92;2.63;;;20.20;99.90;;;;;;5083380;28;20553;-34
2023/07/16 06:33:28;;;;;;;4.35;2.25;;;20.10;99.90;;;;;;5085809;28;20105;-30
2023/07/16 06:35:57;;;;;;;3.88;2.17;;;20.10;99.90;;;;;;5085487;28;20032;-34
2023/07/16 06:38:23;;;;;;;3.15;2.42;;;20.10;99.90;;;;;;5091579;28;20028;-31
2023/07/16 06:40:58;;;;;;;3.17;1.95;;;20.10;99.90;;;;;;5089143;28;20162;-31
2023/07/16 06:43:29;;;;;;;3.28;1.63;;;19.90;99.90;;;;;;5081877;28;20519;-30
2023/07/16 06:45:55;;;;;;;2.08;1.60;;;19.60;99.90;;;;;;5087235;28;20047;-31
2023/07/16 06:48:21;;;;;;;3.28;1.58;;;19.40;99.90;;;;;;5087314;28;20035;-31
2023/07/16 06:50:46;;;;;;;1.30;1.20;;;19.30;99.90;;;;;;5086757;28;20056;-32
2023/07/16 06:53:12;;;;;;;2.55;1.70;;;19.20;99.90;;;;;;5083219;28;20020;-31
2023/07/16 06:55:38;;;;;;;1.50;1.35;;;19.10;99.90;;;;;;5088557;28;20063;-32
2023/07/16 06:58:04;;;;;;;2.10;1.58;;;19.00;99.90;;;;;;5089506;28;20035;-41
2023/07/16 07:00:30;;;;;;;3.25;1.65;;;18.90;99.90;;;;;;5082408;28;20024;-31
2023/07/16 07:02:56;;;;;;;2.25;1.50;;;18.90;99.90;;;;;;5092654;28;20032;-32
2023/07/16 07:05:22;;;;;;;2.63;1.75;;;19.00;99.90;;;;;;5103898;27;20120;-31
2023/07/16 07:07:48;;;;;;;2.53;1.60;;;18.90;99.90;;;;;;5086721;28;20449;-30
2023/07/16 07:10:14;;;;;;;1.33;1.23;;;18.80;99.90;;;;;;5086822;28;20117;-30
2023/07/16 07:12:40;;;;;;;1.45;1.30;;;18.80;99.90;;;;;;5083439;28;20080;-31
2023/07/16 07:15:10;;;;;;;5.93;1.40;;;18.90;99.90;;;;;;5083578;28;20027;-31
2023/07/16 07:17:36;;;;;;;2.13;1.50;;;18.90;99.90;;;;;;5105628;27;20024;-30
2023/07/16 07:20:03;;;;;;;1.65;1.40;;;18.80;99.90;;;;;;5085078;28;20490;-35
2023/07/16 07:22:29;;;;;;;1.42;1.33;;;18.70;99.90;;;;;;5083493;28;20028;-34
2023/07/16 07:24:55;;;;;;;1.65;1.33;;;18.60;99.90;;;;;;5082150;28;20165;-31
2023/07/16 07:27:21;;;;;;;2.40;1.40;;;18.70;99.90;;;;;;5081381;28;20159;-33
2023/07/16 07:29:51;;;;;;;1.73;1.27;;;18.80;99.90;;;;;;5100503;28;20527;-31
2023/07/16 07:32:20;;;;;;;1.35;1.25;;;18.90;99.90;;;;;;5085407;28;20517;-33
2023/07/16 07:34:46;;;;;;;1.60;1.40;;;19.00;99.90;;;;;;5084774;28;20028;-31
2023/07/16 07:37:12;;;;;;;1.60;1.50;;;19.20;99.90;;;;;;5088862;28;20016;-31
2023/07/16 07:39:37;;;;;;;1.80;1.23;;;19.30;99.90;;;;;;5098240;27;20036;-31
2023/07/16 07:42:03;;;;;;;3.15;2.13;;;19.40;99.90;;;;;;5079094;28;20043;-30
2023/07/16 07:44:29;;;;;;;2.30;1.50;;;19.50;99.90;;;;;;5087163;28;20405;-32
2023/07/16 07:46:55;;;;;;;2.20;1.60;;;19.40;99.90;;;;;;5087886;28;20027;-35
2023/07/16 07:49:20;;;;;;;1.88;1.60;;;19.50;99.90;;;;;;5086422;28;20488;-33
2023/07/16 07:51:49;;;;;;;3.47;1.85;;;19.60;99.90;;;;;;5086013;28;20037;-31
2023/07/16 07:54:15;;;;;;;2.03;1.75;;;19.50;99.90;;;;;;5083980;28;20039;-31
2023/07/16 07:56:40;;;;;;;3.03;1.40;;;19.60;99.90;;;;;;5085613;28;20035;-31
2023/07/16 07:59:06;;;;;;;1.75;1.65;;;19.70;99.90;;;;;;5088663;28;20023;-31
2023/07/16 08:01:32;;;;;;;2.03;1.35;;;19.80;99.90;;;;;;5083006;28;20028;-32
2023/07/16 08:03:58;;;;;;;3.17;1.40;;;20.20;99.90;;;;;;5084476;28;20039;-31
2023/07/16 08:06:23;;;;;;;1.63;1.30;;;20.20;99.90;;;;;;5079677;28;20559;-31
2023/07/16 08:08:49;;;;;;;2.20;1.30;;;20.50;99.90;;;;;;5084787;28;20020;-36
2023/07/16 08:11:14;;;;;;;2.75;1.50;;;20.80;99.90;;;;;;5088354;28;20031;-33
2023/07/16 08:13:40;;;;;;;1.98;1.30;;;20.90;99.90;;;;;;5082746;28;20024;-34
2023/07/16 08:16:06;;;;;;;2.47;1.60;;;20.90;99.90;;;;;;5082673;28;20028;-35
2023/07/16 08:18:31;;;;;;;3.53;1.45;;;20.60;99.90;;;;;;5081073;28;20058;-32
2023/07/16 08:20:57;;;;;;;2.40;1.38;;;20.60;99.90;;;;;;5076260;28;20115;-33
2023/07/16 08:23:23;;;;;;;1.70;1.60;;;20.60;99.90;;;;;;5083410;28;20047;-34
2023/07/16 08:25:50;;;;;;;1.50;1.33;;;20.70;99.90;;;;;;5082530;28;20029;-34
2023/07/16 08:28:16;;;;;;;1.58;1.33;;;20.90;99.90;;;;;;5081594;28;20535;-33
2023/07/16 08:30:41;;;;;;;2.63;1.60;;;20.90;99.90;;;;;;5076892;28;20032;-33
2023/07/16 08:33:07;;;;;;;2.15;1.50;;;21.00;99.90;;;;;;5084235;28;20017;-33
2023/07/16 08:35:33;;;;;;;2.33;1.45;;;21.00;99.90;;;;;;5080447;28;20024;-33
2023/07/16 08:37:58;;;;;;;2.65;1.65;;;20.90;99.90;;;;;;5085278;28;20081;-33
2023/07/16 08:40:24;;;;;;;1.65;1.50;;;20.80;99.90;;;;;;5077976;28;20036;-38
2023/07/16 08:42:50;;;;;;;2.05;1.58;;;20.80;99.90;;;;;;5076612;28;20473;-35
2023/07/16 08:45:16;;;;;;;1.95;1.35;;;20.90;99.90;;;;;;5080894;28;20020;-33
2023/07/16 08:47:42;;;;;;;2.22;1.60;;;21.00;99.90;;;;;;5076035;28;20486;-34
2023/07/16 08:50:09;;;;;;;2.05;1.48;;;20.90;99.90;;;;;;5079335;28;20088;-34
2023/07/16 08:52:34;;;;;;;1.90;1.73;;;20.80;99.90;;;;;;5080410;28;20025;-35
2023/07/16 08:55:00;;;;;;;1.90;1.40;;;20.90;99.90;;;;;;5074495;28;20520;-35
2023/07/16 08:57:27;;;;;;;2.53;1.50;;;20.90;99.90;;;;;;5075421;28;20036;-39
2023/07/16 08:59:53;;;;;;;2.28;1.60;;;20.60;99.90;;;;;;5078192;28;20160;-35
2023/07/16 09:02:19;;;;;;;2.70;1.50;;;20.70;99.90;;;;;;5081940;28;20517;-33
2023/07/16 09:04:49;;;;;;;2.03;1.52;;;20.60;99.90;;;;;;5083639;28;20028;-35
2023/07/16 09:07:15;;;;;;;2.65;1.70;;;20.70;99.90;;;;;;5078087;28;20077;-32
2023/07/16 09:09:41;;;;;;;2.00;1.60;;;20.80;99.90;;;;;;5082116;28;20036;-33
2023/07/16 09:12:12;;;;;;;1.90;1.70;;;20.80;99.90;;;;;;5087221;28;20516;-34
2023/07/16 09:14:37;;;;;;;3.10;1.42;;;21.10;99.90;;;;;;5083906;28;20028;-32
2023/07/16 09:17:03;;;;;;;3.22;1.50;;;21.40;99.90;;;;;;5099883;27;20032;-35
2023/07/16 09:19:32;;;;;;;2.15;1.70;;;21.60;99.90;;;;;;5089848;28;20055;-31
2023/07/16 09:21:58;;;;;;;2.38;1.70;;;21.80;99.90;;;;;;5091694;28;20106;-31
2023/07/16 09:24:24;;;;;;;1.67;1.52;;;21.50;99.90;;;;;;5088289;28;20042;-31
2023/07/16 09:26:50;;;;;;;2.65;1.67;;;21.70;99.90;;;;;;5084171;28;20532;-31
2023/07/16 09:29:17;;;;;;;2.17;1.75;;;22.00;99.90;;;;;;5083995;28;20478;-31
2023/07/16 09:32:12;;;;;;;2.83;1.50;;;22.20;99.90;;;;;;5092133;28;20035;-30
2023/07/16 09:34:37;;;;;;;1.48;1.38;;;22.40;99.90;;;;;;5094858;28;20733;-30
2023/07/16 09:37:05;;;;;;;3.05;1.60;;;22.20;99.90;;;;;;5086248;28;20039;-34
2023/07/16 09:39:32;;;;;;;1.70;1.40;;;22.50;99.90;;;;;;5102002;27;20055;-31
2023/07/16 09:41:58;;;;;;;2.63;1.63;;;22.60;99.90;;;;;;5086697;28;20020;-31
2023/07/16 09:44:23;;;;;;;2.58;1.58;;;22.70;99.90;;;;;;5090902;28;20047;-34
2023/07/16 09:46:49;;;;;;;1.77;1.67;;;22.80;99.90;;;;;;5088383;28;20020;-32
2023/07/16 09:49:16;;;;;;;2.50;1.90;;;22.70;99.90;;;;;;5087340;28;20339;-32
2023/07/16 09:51:43;;;;;;;2.10;1.90;;;22.70;99.90;;;;;;5085466;28;20024;-31
2023/07/16 09:54:11;;;;;;;2.25;1.75;;;22.70;99.90;;;;;;5085517;28;20066;-33
2023/07/16 09:56:40;;;;;;;2.03;1.45;;;22.80;99.90;;;;;;5087615;28;20035;-31
2023/07/16 09:59:11;;;;;;;2.67;1.50;;;23.00;99.90;;;;;;5086928;28;20031;-31
2023/07/16 10:01:40;;;;;;;1.67;1.58;;;22.90;99.90;;;;;;5090527;28;20035;-31
2023/07/16 10:04:20;;;;;;;1.63;1.48;;;22.80;99.90;;;;;;5089930;28;20080;-33
2023/07/16 10:06:52;;;;;;;1.50;1.40;;;23.10;99.90;;;;;;5090232;28;20035;-34
2023/07/16 10:09:50;;;;;;;2.05;1.75;;;23.40;99.90;;;;;;5081852;28;20073;-31
2023/07/16 10:12:18;;;;;;;2.38;1.70;;;23.30;99.90;;;;;;5088264;28;20512;-31
2023/07/16 10:14:48;;;;;;;1.70;1.33;;;23.10;99.90;;;;;;5087880;28;20110;-37
2023/07/16 10:17:15;;;;;;;3.67;1.50;;;23.00;99.90;;;;;;5086271;28;20509;-33
2023/07/16 10:20:12;;;;;;;2.50;1.80;;;23.20;99.90;;;;;;5084257;28;20114;-34
2023/07/16 10:22:41;;;;;;;1.77;1.60;;;23.30;99.90;;;;;;5086728;28;20373;-37
2023/07/16 10:25:21;;;;;;;1.50;1.40;;;23.40;99.90;;;;;;5086381;28;20024;-31
2023/07/16 10:27:50;;;;;;;2.38;1.42;;;23.80;99.90;;;;;;5085488;28;20027;-31
2023/07/16 10:30:16;;;;;;;1.65;1.55;;;23.70;99.90;;;;;;5084725;28;20050;-33
2023/07/16 10:32:42;;;;;;;2.05;1.83;;;23.60;99.90;;;;;;5083320;28;20043;-32
2023/07/16 10:35:08;;;;;;;1.60;1.50;;;23.80;99.90;;;;;;5081233;28;20102;-33
2023/07/16 10:37:35;;;;;;;1.90;1.60;;;23.80;99.90;;;;;;5084906;28;20137;-34
2023/07/16 10:40:04;;;;;;;1.60;1.50;;;24.00;99.90;;;;;;5085382;28;20040;-34
2023/07/16 10:42:31;;;;;;;1.80;1.63;;;24.00;99.90;;;;;;5086206;28;20028;-32
2023/07/16 10:45:03;;;;;;;3.13;1.60;;;24.00;99.90;;;;;;5078856;28;20043;-33
2023/07/16 10:47:36;;;;;;;1.65;1.55;;;23.70;99.90;;;;;;5078894;28;20028;-37
2023/07/16 10:50:07;;;;;;;1.77;1.67;;;23.50;99.90;;;;;;5078679;28;20099;-32
2023/07/16 10:52:33;;;;;;;1.95;1.50;;;23.30;99.90;;;;;;5082719;28;20780;-32
2023/07/16 10:54:59;;;;;;;1.73;1.63;;;23.30;99.90;;;;;;5086193;28;20063;-33
2023/07/16 10:57:25;;;;;;;2.40;1.58;;;23.40;99.90;;;;;;5079506;28;20052;-32
2023/07/16 10:59:52;;;;;;;1.77;1.55;;;23.60;99.90;;;;;;5081765;28;20063;-34
2023/07/16 11:02:18;;;;;;;2.47;1.70;;;23.50;99.90;;;;;;5084518;28;20074;-32
2023/07/16 11:04:45;;;;;;;1.60;1.50;;;23.60;99.90;;;;;;5085494;28;20419;-34
2023/07/16 11:07:12;;;;;;;1.93;1.70;;;23.80;99.90;;;;;;5082478;28;20028;-33
2023/07/16 11:09:46;;;;;;;1.75;1.60;;;23.90;99.90;;;;;;5080139;28;20020;-34
2023/07/16 11:12:14;;;;;;;3.03;1.80;;;23.90;99.90;;;;;;5084588;28;20069;-32
2023/07/16 11:14:45;;;;;;;1.55;1.45;;;23.80;99.90;;;;;;5080871;28;20479;-32
2023/07/16 11:17:11;;;;;;;2.08;1.58;;;24.10;99.90;;;;;;5080078;28;20437;-33
2023/07/16 11:19:38;;;;;;;2.08;1.77;;;24.50;99.90;;;;;;5084569;28;20035;-33
2023/07/16 11:22:05;;;;;;;1.80;1.70;;;24.40;99.90;;;;;;5086400;28;20047;-32
2023/07/16 11:24:41;;;;;;;2.55;1.70;;;24.20;99.90;;;;;;5081600;28;20158;-34
2023/07/16 11:27:14;;;;;;;1.67;1.40;;;24.30;99.90;;;;;;5085067;28;20090;-34
2023/07/16 11:29:44;;;;;;;1.85;1.67;;;24.60;99.90;;;;;;5081003;28;20020;-33
2023/07/16 11:32:10;;;;;;;2.78;1.67;;;24.70;99.90;;;;;;5081821;28;20028;-34
2023/07/16 11:34:36;;;;;;;2.13;1.63;;;24.70;99.90;;;;;;5084841;28;20104;-32
2023/07/16 11:37:11;;;;;;;1.90;1.70;;;24.60;99.90;;;;;;5085629;28;20035;-33
2023/07/16 11:39:37;;;;;;;1.60;1.50;;;24.50;99.90;;;;;;5081753;28;20119;-40
2023/07/16 11:42:04;;;;;;;1.60;1.50;;;24.40;99.90;;;;;;5076081;28;20031;-38
2023/07/16 11:44:34;;;;;;;1.73;1.60;;;24.50;99.90;;;;;;5079165;28;20838;-42
2023/07/16 11:47:00;;;;;;;1.85;1.67;;;24.50;99.90;;;;;;5082779;28;20581;-42
2023/07/16 11:49:26;;;;;;;1.70;1.60;;;24.30;99.90;;;;;;5084092;28;20439;-39
2023/07/16 11:51:51;;;;;;;1.85;1.50;;;24.40;99.90;;;;;;5081718;28;20032;-42
2023/07/16 11:54:17;;;;;;;1.58;1.48;;;24.40;99.90;;;;;;5079425;28;20502;-41
2023/07/16 11:56:42;;;;;;;2.40;1.50;;;24.20;99.90;;;;;;5074374;28;20040;-42
2023/07/16 11:59:08;;;;;;;2.10;1.52;;;24.10;99.90;;;;;;5080771;28;20024;-42
2023/07/16 12:01:34;;;;;;;1.65;1.55;;;24.20;99.90;;;;;;5083552;28;20047;-37
2023/07/16 12:03:59;;;;;;;2.05;1.70;;;24.20;99.90;;;;;;5083687;28;20115;-42
2023/07/16 12:06:25;;;;;;;2.35;1.67;;;24.30;99.90;;;;;;5081065;28;20480;-41
2023/07/16 12:08:51;;;;;;;1.83;1.73;;;24.40;99.90;;;;;;5092526;28;20043;-40
2023/07/16 12:11:16;;;;;;;1.98;1.70;;;24.10;99.90;;;;;;5078833;28;20032;-40
2023/07/16 12:13:42;;;;;;;2.10;1.70;;;24.30;99.90;;;;;;5084417;28;20447;-42
2023/07/16 12:16:07;;;;;;;1.85;1.67;;;24.70;99.90;;;;;;5083501;28;20069;-42
2023/07/16 12:18:33;;;;;;;1.60;1.50;;;25.10;99.90;;;;;;5084003;28;20046;-41
2023/07/16 12:20:58;;;;;;;1.67;1.58;;;25.20;99.90;;;;;;5080977;28;20050;-41
2023/07/16 12:23:24;;;;;;;1.73;1.60;;;24.70;99.90;;;;;;5076615;28;20059;-39
2023/07/16 12:25:50;;;;;;;2.88;2.00;;;24.30;99.90;;;;;;5081890;28;20036;-41
2023/07/16 12:28:16;;;;;;;2.00;1.80;;;24.60;99.90;;;;;;5084640;28;20021;-41
2023/07/16 12:30:42;;;;;;;1.98;1.80;;;25.00;99.90;;;;;;5081103;28;20024;-42
2023/07/16 12:33:07;;;;;;;3.30;1.67;;;25.00;99.90;;;;;;5098338;28;20405;-42
2023/07/16 12:35:33;;;;;;;2.15;1.67;;;25.20;99.90;;;;;;5086583;28;20123;-37
2023/07/16 12:37:59;;;;;;;1.65;1.55;;;24.90;99.90;;;;;;5077141;28;20478;-42
2023/07/16 12:40:25;;;;;;;3.00;1.80;;;24.10;99.90;;;;;;5081804;28;20024;-33
2023/07/16 12:42:51;;;;;;;1.50;1.40;;;23.80;99.90;;;;;;5083745;28;20599;-39
2023/07/16 12:45:16;;;;;;;2.00;1.58;;;23.70;99.90;;;;;;5082549;28;20036;-40
2023/07/16 12:47:42;;;;;;;1.80;1.70;;;23.60;99.90;;;;;;5087558;28;20033;-40